createdAt,value
2018-12-08T00:01:23.273Z,12.20
2018-12-08T00:03:52.183Z,12.30
2018-12-08T00:06:21.157Z,12.20
2018-12-08T00:08:50.448Z,12.20
2018-12-08T00:11:19.437Z,12.20
2018-12-08T00:13:49.484Z,12.20
2018-12-08T00:16:18.845Z,12.30
2018-12-08T00:18:47.729Z,12.30
2018-12-08T00:21:16.251Z,12.30
2018-12-08T00:23:45.229Z,12.20
2018-12-08T00:26:14.577Z,12.10
2018-12-08T00:28:43.143Z,12.20
2018-12-08T00:31:23.090Z,12.20
2018-12-08T00:33:54.016Z,12.30
2018-12-08T00:36:22.943Z,12.10
2018-12-08T00:38:51.511Z,12.00
2018-12-08T00:41:20.121Z,11.90
2018-12-08T00:43:48.730Z,11.40
2018-12-08T00:46:18.022Z,11.10
2018-12-08T00:48:46.709Z,10.80
2018-12-08T00:51:15.746Z,10.40
2018-12-08T00:53:44.785Z,10.30
2018-12-08T00:56:13.864Z,10.00
2018-12-08T00:58:42.926Z,9.90
2018-12-08T01:01:12.215Z,9.80
2018-12-08T01:03:41.617Z,9.70
2018-12-08T01:06:10.234Z,9.50
2018-12-08T01:08:38.898Z,9.40
2018-12-08T01:11:07.956Z,9.30
2018-12-08T01:13:37.038Z,9.20
2018-12-08T01:16:07.216Z,9.20
2018-12-08T01:18:36.396Z,9.20
2018-12-08T01:21:05.507Z,9.20
2018-12-08T01:23:34.145Z,9.20
2018-12-08T01:26:03.669Z,9.30
2018-12-08T01:28:32.341Z,9.20
2018-12-08T01:31:01.346Z,9.10
2018-12-08T01:33:29.939Z,9.20
2018-12-08T01:35:59.343Z,8.90
2018-12-08T01:38:28.444Z,9.10
2018-12-08T01:40:57.087Z,9.10
2018-12-08T01:43:25.893Z,9.10
2018-12-08T01:45:56.267Z,9.00
2018-12-08T01:48:25.225Z,8.90
2018-12-08T01:50:54.481Z,9.00
2018-12-08T01:53:23.008Z,9.00
2018-12-08T01:55:52.330Z,8.80
2018-12-08T01:58:20.872Z,8.70
2018-12-08T02:00:49.806Z,8.80
2018-12-08T02:03:18.540Z,8.50
2018-12-08T02:05:47.214Z,8.40
2018-12-08T02:08:15.850Z,8.30
2018-12-08T02:10:44.474Z,8.20
2018-12-08T02:13:13.575Z,8.40
2018-12-08T02:15:42.802Z,8.30
2018-12-08T02:18:11.922Z,8.30
2018-12-08T02:20:40.554Z,8.30
2018-12-08T02:23:09.260Z,8.20
2018-12-08T02:25:38.360Z,8.20
2018-12-08T02:28:07.398Z,8.50
2018-12-08T02:30:36.452Z,8.30
2018-12-08T02:33:05.492Z,8.40
2018-12-08T02:35:34.966Z,8.40
2018-12-08T02:38:03.555Z,8.40
2018-12-08T02:40:32.517Z,8.30
2018-12-08T02:43:01.095Z,8.20
2018-12-08T02:45:30.083Z,8.20
2018-12-08T02:47:59.154Z,8.10
2018-12-08T02:50:27.754Z,8.20
2018-12-08T02:52:56.590Z,8.10
2018-12-08T02:55:28.508Z,8.00
2018-12-08T02:57:57.095Z,8.10
2018-12-08T03:00:25.706Z,8.00
2018-12-08T03:02:54.263Z,7.90
2018-12-08T03:05:23.292Z,7.80
2018-12-08T03:07:52.576Z,7.80
2018-12-08T03:10:21.496Z,7.80
2018-12-08T03:12:50.066Z,7.80
2018-12-08T03:15:18.598Z,7.70
2018-12-08T03:17:47.136Z,7.70
2018-12-08T03:20:16.379Z,7.80
2018-12-08T03:22:44.898Z,7.90
2018-12-08T03:25:13.816Z,7.80
2018-12-08T03:27:42.728Z,7.70
2018-12-08T03:30:12.040Z,7.90
2018-12-08T03:32:40.596Z,8.00
2018-12-08T03:35:09.953Z,7.90
2018-12-08T03:37:38.470Z,7.90
2018-12-08T03:40:08.086Z,7.80
2018-12-08T03:42:37.477Z,7.70
2018-12-08T03:45:06.991Z,7.80
2018-12-08T03:47:35.901Z,7.70
2018-12-08T03:50:06.286Z,7.70
2018-12-08T03:52:35.242Z,7.80
2018-12-08T03:55:04.589Z,7.80
2018-12-08T03:57:33.558Z,7.80
2018-12-08T04:00:02.528Z,7.80
2018-12-08T04:02:31.105Z,7.80
2018-12-08T04:05:00.059Z,7.80
2018-12-08T04:07:29.881Z,7.90
2018-12-08T04:09:58.891Z,7.90
2018-12-08T04:12:27.500Z,7.80
2018-12-08T04:14:56.130Z,7.70
2018-12-08T04:17:24.762Z,7.70
2018-12-08T04:19:53.330Z,7.70
2018-12-08T04:22:21.911Z,7.70
2018-12-08T04:24:50.817Z,7.70
2018-12-08T04:27:19.819Z,7.70
2018-12-08T04:29:48.386Z,7.70
2018-12-08T04:32:17.092Z,7.70
2018-12-08T04:34:45.701Z,7.90
2018-12-08T04:37:14.290Z,7.80
2018-12-08T04:39:43.344Z,7.80
2018-12-08T04:42:11.945Z,7.70
2018-12-08T04:44:40.497Z,7.70
2018-12-08T04:47:09.043Z,7.80
2018-12-08T04:49:37.623Z,7.80
2018-12-08T04:52:06.601Z,7.90
2018-12-08T04:54:37.135Z,7.90
2018-12-08T04:57:05.726Z,7.80
2018-12-08T04:59:34.347Z,7.80
2018-12-08T05:02:02.899Z,7.90
2018-12-08T05:04:32.172Z,7.90
2018-12-08T05:07:00.771Z,8.00
2018-12-08T05:09:29.316Z,7.90
2018-12-08T05:11:58.322Z,7.90
2018-12-08T05:14:26.960Z,7.90
2018-12-08T05:16:55.644Z,8.00
2018-12-08T05:19:24.541Z,8.00
2018-12-08T05:21:53.824Z,7.90
2018-12-08T05:24:22.721Z,7.90
2018-12-08T05:26:51.217Z,7.80
2018-12-08T05:29:20.099Z,7.80
2018-12-08T05:31:51.471Z,7.60
2018-12-08T05:34:20.022Z,7.70
2018-12-08T05:36:49.335Z,7.60
2018-12-08T05:39:18.662Z,7.70
2018-12-08T05:41:48.298Z,7.60
2018-12-08T05:44:16.845Z,7.60
2018-12-08T05:46:45.955Z,7.60
2018-12-08T05:49:56.198Z,7.60
2018-12-08T05:52:24.981Z,7.50
2018-12-08T05:54:53.692Z,7.60
2018-12-08T05:57:24.210Z,7.60
2018-12-08T05:59:53.777Z,7.50
2018-12-08T06:02:22.409Z,7.50
2018-12-08T06:04:51.048Z,7.60
2018-12-08T06:07:20.016Z,7.60
2018-12-08T06:09:50.120Z,7.60
2018-12-08T06:12:19.046Z,7.50
2018-12-08T06:14:47.597Z,7.50
2018-12-08T06:17:17.187Z,8.40
2018-12-08T06:19:46.066Z,9.10
2018-12-08T06:22:14.555Z,9.60
2018-12-08T06:27:35.454Z,9.90
2018-12-08T06:30:17.123Z,9.40
2018-12-08T06:35:51.727Z,8.60
2018-12-08T06:38:20.288Z,8.40
2018-12-08T06:40:49.251Z,8.20
2018-12-08T06:43:52.594Z,8.00
2018-12-08T06:46:23.376Z,8.00
2018-12-08T06:48:53.159Z,7.90
2018-12-08T06:51:22.113Z,7.80
2018-12-08T07:02:53.474Z,7.90
2018-12-08T07:05:22.485Z,7.90
2018-12-08T07:07:51.468Z,7.80
2018-12-08T07:10:20.794Z,7.70
2018-12-08T07:12:50.977Z,7.60
2018-12-08T07:15:20.283Z,7.70
2018-12-08T07:17:49.331Z,7.60
2018-12-08T08:00:40.747Z,7.60
2018-12-08T08:12:35.746Z,8.60
2018-12-08T08:15:29.990Z,8.60
2018-12-08T08:18:10.690Z,8.70
2018-12-08T08:23:44.485Z,8.60
2018-12-08T08:35:25.389Z,8.60
2018-12-08T08:37:54.005Z,8.40
2018-12-08T08:40:29.112Z,8.30
2018-12-08T08:42:59.815Z,8.40
2018-12-08T09:00:36.862Z,8.50
2018-12-08T09:15:22.895Z,8.70
2018-12-08T09:26:52.619Z,8.80
2018-12-08T09:29:32.756Z,8.90
2018-12-08T09:38:31.650Z,9.00
2018-12-08T09:53:28.064Z,9.20
2018-12-08T09:55:57.554Z,9.20
2018-12-08T09:58:26.600Z,9.60
2018-12-08T10:01:11.733Z,9.70
2018-12-08T10:09:44.460Z,9.60
2018-12-08T10:12:18.859Z,9.60
2018-12-08T10:17:37.569Z,9.80
2018-12-08T10:27:51.239Z,9.80
2018-12-08T10:30:20.316Z,9.90
2018-12-08T10:32:55.353Z,9.90
2018-12-08T10:35:28.505Z,10.10
2018-12-08T10:37:57.498Z,10.10
2018-12-08T10:40:27.505Z,10.00
2018-12-08T10:42:56.044Z,10.10
2018-12-08T10:45:25.033Z,10.20
2018-12-08T10:47:54.600Z,10.20
2018-12-08T10:50:23.714Z,10.20
2018-12-08T10:52:52.699Z,10.20
2018-12-08T10:55:21.620Z,10.40
2018-12-08T10:57:50.452Z,10.40
2018-12-08T11:01:25.526Z,10.40
2018-12-08T11:03:54.038Z,10.40
2018-12-08T11:06:23.339Z,10.40
2018-12-08T11:08:52.254Z,10.30
2018-12-08T11:11:20.912Z,10.30
2018-12-08T11:13:49.920Z,10.30
2018-12-08T11:16:19.514Z,10.40
2018-12-08T11:18:48.159Z,10.50
2018-12-08T11:21:20.027Z,10.40
2018-12-08T11:23:52.452Z,10.30
2018-12-08T11:26:22.736Z,10.20
2018-12-08T11:28:55.789Z,10.50
2018-12-08T11:31:33.577Z,10.30
2018-12-08T11:34:06.415Z,10.20
2018-12-08T11:36:35.511Z,10.30
2018-12-08T11:39:07.929Z,10.40
2018-12-08T11:41:39.323Z,10.30
2018-12-08T11:44:11.747Z,10.20
2018-12-08T11:46:42.955Z,10.20
2018-12-08T11:49:12.697Z,10.30
2018-12-08T11:51:44.162Z,10.30
2018-12-08T11:54:12.816Z,10.30
2018-12-08T11:56:56.208Z,10.20
2018-12-08T11:59:25.994Z,10.20
2018-12-08T12:01:56.786Z,10.10
2018-12-08T12:08:07.663Z,10.20
2018-12-08T12:10:36.662Z,10.30
2018-12-08T12:13:06.121Z,10.20
2018-12-08T12:15:35.530Z,10.20
2018-12-08T12:18:04.989Z,10.20
2018-12-08T12:20:33.859Z,10.10
2018-12-08T12:23:02.792Z,10.20
2018-12-08T12:25:32.311Z,10.20
2018-12-08T12:28:02.215Z,10.20
2018-12-08T12:30:31.375Z,10.10
2018-12-08T12:33:00.495Z,10.20
2018-12-08T12:35:29.597Z,10.20
2018-12-08T12:37:58.643Z,10.10
2018-12-08T12:40:28.128Z,10.00
2018-12-08T12:42:57.153Z,10.10
2018-12-08T12:45:27.597Z,10.10
2018-12-08T12:47:56.211Z,10.20
2018-12-08T12:50:25.645Z,10.20
2018-12-08T12:52:54.277Z,10.00
2018-12-08T12:55:23.344Z,10.10
2018-12-08T12:57:53.714Z,10.20
2018-12-08T13:00:23.189Z,10.20
2018-12-08T13:02:53.008Z,10.10
2018-12-08T13:05:21.872Z,10.20
2018-12-08T13:07:50.562Z,10.10
2018-12-08T13:10:19.251Z,10.20
2018-12-08T13:12:50.086Z,10.20
2018-12-08T13:15:19.160Z,10.40
2018-12-08T13:17:49.266Z,10.50
2018-12-08T13:20:18.709Z,10.40
2018-12-08T13:22:48.165Z,10.40
2018-12-08T13:25:27.247Z,10.30
2018-12-08T13:28:00.742Z,10.30
2018-12-08T13:30:31.387Z,10.40
2018-12-08T13:33:00.730Z,10.50
2018-12-08T13:35:54.788Z,10.40
2018-12-08T13:38:24.809Z,10.40
2018-12-08T13:40:53.864Z,10.50
2018-12-08T13:43:22.639Z,10.30
2018-12-08T13:45:53.843Z,10.20
2018-12-08T13:48:25.299Z,10.20
2018-12-08T13:50:54.764Z,10.00
2018-12-08T13:53:23.831Z,10.00
2018-12-08T13:55:53.726Z,10.00
2018-12-08T13:58:22.403Z,10.00
2018-12-08T14:00:53.410Z,9.90
2018-12-08T14:03:22.080Z,9.80
2018-12-08T14:05:51.815Z,9.80
2018-12-08T14:08:20.462Z,9.70
2018-12-08T14:10:49.083Z,9.70
2018-12-08T14:13:18.478Z,9.70
2018-12-08T14:15:48.021Z,9.70
2018-12-08T14:18:18.088Z,9.80
2018-12-08T14:23:28.307Z,9.60
2018-12-08T14:25:57.216Z,9.50
2018-12-08T14:28:40.031Z,9.50
2018-12-08T14:31:11.190Z,9.60
2018-12-08T14:33:44.028Z,9.50
2018-12-08T14:36:16.425Z,9.50
2018-12-08T14:38:45.802Z,9.60
2018-12-08T14:41:14.937Z,9.50
2018-12-08T14:43:43.964Z,9.60
2018-12-08T14:46:13.476Z,9.50
2018-12-08T14:48:42.544Z,9.40
2018-12-08T14:51:11.185Z,9.30
2018-12-08T14:53:40.685Z,9.40
2018-12-08T14:56:10.109Z,9.30
2018-12-08T14:58:39.263Z,9.30
2018-12-08T15:01:08.916Z,9.20
2018-12-08T15:03:38.491Z,9.30
2018-12-08T15:06:07.584Z,9.20
2018-12-08T15:08:37.130Z,9.30
2018-12-08T15:11:06.638Z,9.50
2018-12-08T15:13:36.188Z,9.40
2018-12-08T15:16:05.747Z,9.30
2018-12-08T15:18:35.713Z,8.90
2018-12-08T15:21:04.762Z,8.70
2018-12-08T15:23:34.210Z,8.60
2018-12-08T15:26:03.581Z,8.50
2018-12-08T15:28:32.518Z,8.50
2018-12-08T15:31:01.388Z,8.50
2018-12-08T15:33:30.005Z,8.50
2018-12-08T15:36:00.306Z,8.40
2018-12-08T15:38:29.328Z,8.60
2018-12-08T15:40:58.416Z,8.50
2018-12-08T15:43:27.466Z,8.40
2018-12-08T15:45:56.553Z,8.40
2018-12-08T15:48:25.178Z,8.20
2018-12-08T15:50:54.179Z,8.20
2018-12-08T15:53:23.497Z,8.20
2018-12-08T15:55:54.126Z,8.20
2018-12-08T15:58:23.882Z,8.20
2018-12-08T16:00:52.505Z,8.20
2018-12-08T16:03:21.567Z,8.10
2018-12-08T16:05:51.719Z,8.10
2018-12-08T16:08:21.028Z,8.20
2018-12-08T16:10:49.612Z,8.30
2018-12-08T16:13:18.817Z,8.20
2018-12-08T16:15:47.451Z,8.20
2018-12-08T16:18:16.083Z,8.20
2018-12-08T16:20:45.327Z,8.40
2018-12-08T16:23:15.044Z,8.40
2018-12-08T16:25:44.878Z,8.50
2018-12-08T16:28:13.515Z,8.50
2018-12-08T16:30:42.446Z,8.50
2018-12-08T16:33:11.998Z,8.40
2018-12-08T16:35:43.918Z,8.50
2018-12-08T16:38:14.422Z,8.50
2018-12-08T16:40:47.021Z,8.70
2018-12-08T16:43:16.917Z,8.60
2018-12-08T16:45:50.923Z,8.60
2018-12-08T16:48:28.215Z,8.80
2018-12-08T16:51:00.585Z,8.80
2018-12-08T16:53:32.533Z,8.80
2018-12-08T16:56:02.261Z,8.80
2018-12-08T16:58:32.091Z,8.90
2018-12-08T17:01:04.833Z,8.70
2018-12-08T17:03:35.175Z,8.90
2018-12-08T17:06:04.640Z,9.00
2018-12-08T17:08:34.289Z,9.00
2018-12-08T17:11:03.162Z,9.00
2018-12-08T17:13:31.887Z,9.00
2018-12-08T17:16:04.700Z,9.00
2018-12-08T17:18:34.289Z,9.10
2018-12-08T17:21:04.192Z,9.00
2018-12-08T17:23:33.215Z,8.90
2018-12-08T17:26:02.428Z,9.00
2018-12-08T17:28:31.412Z,9.00
2018-12-08T17:31:01.162Z,9.10
2018-12-08T17:33:30.748Z,9.00
2018-12-08T17:35:59.983Z,9.00
2018-12-08T17:38:28.588Z,9.00
2018-12-08T17:40:58.002Z,9.00
2018-12-08T17:43:26.651Z,9.10
2018-12-08T17:45:55.607Z,9.20
2018-12-08T17:48:25.073Z,9.10
2018-12-08T17:50:54.479Z,8.90
2018-12-08T17:53:23.453Z,9.00
2018-12-08T17:55:52.356Z,9.30
2018-12-08T17:58:21.952Z,9.10
2018-12-08T18:00:51.027Z,9.00
2018-12-08T18:03:20.582Z,8.90
2018-12-08T18:05:49.672Z,8.90
2018-12-08T18:08:19.107Z,8.80
2018-12-08T18:10:48.155Z,9.00
2018-12-08T18:13:17.232Z,9.00
2018-12-08T18:15:45.884Z,9.00
2018-12-08T18:18:15.546Z,8.90
2018-12-08T18:20:45.000Z,8.80
2018-12-08T18:23:14.130Z,8.80
2018-12-08T18:25:42.770Z,8.90
2018-12-08T18:28:11.845Z,8.90
2018-12-08T18:30:40.497Z,8.90
2018-12-08T18:33:09.172Z,9.00
2018-12-08T18:35:38.641Z,8.90
2018-12-08T18:38:07.853Z,8.90
2018-12-08T18:40:36.878Z,8.90
2018-12-08T18:43:05.920Z,8.90
2018-12-08T18:45:35.562Z,9.00
2018-12-08T18:48:05.277Z,8.90
2018-12-08T18:50:34.347Z,8.90
2018-12-08T18:53:03.399Z,8.90
2018-12-08T18:55:32.140Z,9.10
2018-12-08T18:58:01.498Z,9.10
2018-12-08T19:00:30.521Z,8.90
2018-12-08T19:03:00.274Z,8.70
2018-12-08T19:05:29.694Z,8.80
2018-12-08T19:07:58.956Z,8.90
2018-12-08T19:10:29.601Z,8.90
2018-12-08T19:12:58.678Z,9.00
2018-12-08T19:15:29.537Z,8.90
2018-12-08T19:18:00.150Z,9.00
2018-12-08T19:20:30.711Z,8.90
2018-12-08T19:23:10.435Z,8.90
2018-12-08T19:26:06.484Z,8.90
2018-12-08T19:28:35.372Z,8.90
2018-12-08T19:31:14.341Z,8.90
2018-12-08T19:33:56.255Z,8.80
2018-12-08T20:18:04.355Z,8.70
2018-12-08T20:29:38.697Z,8.60
2018-12-08T20:32:35.644Z,8.70
2018-12-08T20:35:05.274Z,8.80
2018-12-08T20:37:42.240Z,8.70
2018-12-08T20:40:19.486Z,8.70
2018-12-08T21:20:20.726Z,8.50
2018-12-08T21:23:10.704Z,8.50
2018-12-08T21:46:28.638Z,8.30
2018-12-08T21:49:07.511Z,8.40
2018-12-08T22:04:53.168Z,8.40
2018-12-08T22:57:39.478Z,8.80
2018-12-08T23:03:23.520Z,8.90
2018-12-08T23:06:05.336Z,8.90
2018-12-08T23:08:49.998Z,8.80
2018-12-08T23:14:08.246Z,8.90
2018-12-08T23:16:41.103Z,8.90
2018-12-08T23:19:13.964Z,8.90
2018-12-08T23:21:51.438Z,8.90
2018-12-08T23:24:28.752Z,8.90
2018-12-08T23:27:13.152Z,8.90
2018-12-08T23:29:44.614Z,8.90
2018-12-08T23:32:16.435Z,8.90
2018-12-08T23:34:55.743Z,8.90
2018-12-08T23:37:48.806Z,8.90
2018-12-08T23:40:25.980Z,9.00
2018-12-08T23:42:59.019Z,8.90
2018-12-08T23:45:33.130Z,8.80
2018-12-08T23:50:58.032Z,8.70
2018-12-08T23:53:30.490Z,8.60
2018-12-08T23:56:00.219Z,8.60
2018-12-08T23:58:34.722Z,8.50
